Time;durP1;ratioP1;P1;durP2;ratioP2;P2;SDS_P1;SDS_P2;PMS_P1;PMS_P2;Temp;Humidity;BMP_temperature;BMP_pressure;BME280_temperature;BME280_humidity;BME280_pressure;Samples;Min_cycle;Max_cycle;Signal;HPM_P1;HPM_P2
2021/01/14 00:00:54;;;;;;;1.33;0.70;;;5.30;94.30;;;;;;4990507;28;20102;-56
2021/01/14 00:03:19;;;;;;;1.65;0.77;;;5.30;94.40;;;;;;4983978;28;20505;-56
2021/01/14 00:05:45;;;;;;;2.78;1.02;;;5.20;94.40;;;;;;4990255;28;20041;-57
2021/01/14 00:08:10;;;;;;;1.25;0.77;;;5.30;94.40;;;;;;4985254;28;20049;-55
2021/01/14 00:10:36;;;;;;;1.02;0.70;;;5.30;94.40;;;;;;4987009;28;20023;-55
2021/01/14 00:13:05;;;;;;;1.17;0.55;;;5.30;94.40;;;;;;4987093;28;20026;-55
2021/01/14 00:15:31;;;;;;;0.68;0.50;;;5.30;94.40;;;;;;4986471;28;20410;-56
2021/01/14 00:17:56;;;;;;;0.95;0.60;;;5.20;94.40;;;;;;4987253;28;20022;-55
2021/01/14 00:20:22;;;;;;;1.10;0.70;;;5.30;94.40;;;;;;4991927;28;20474;-56
2021/01/14 00:22:47;;;;;;;0.47;0.45;;;5.30;94.50;;;;;;4992434;28;20113;-56
2021/01/14 00:25:14;;;;;;;0.60;0.57;;;5.30;94.50;;;;;;4991844;28;20026;-57
2021/01/14 00:27:40;;;;;;;1.45;0.70;;;5.30;94.70;;;;;;4984803;28;20026;-55
2021/01/14 00:30:15;;;;;;;1.13;0.70;;;5.30;94.50;;;;;;4991862;28;20497;-57
2021/01/14 00:32:41;;;;;;;1.17;0.60;;;5.30;94.60;;;;;;4991744;28;20044;-57
2021/01/14 00:35:07;;;;;;;0.93;0.52;;;5.30;94.60;;;;;;4980612;28;20042;-56
2021/01/14 00:37:50;;;;;;;0.38;0.35;;;5.30;94.50;;;;;;4990961;28;20103;-56
2021/01/14 00:40:23;;;;;;;0.73;0.60;;;5.30;94.50;;;;;;4979669;28;20038;-56
2021/01/14 00:43:00;;;;;;;1.17;0.52;;;5.30;94.60;;;;;;4972480;28;20023;-57
2021/01/14 00:45:26;;;;;;;0.73;0.50;;;5.30;94.60;;;;;;4974249;28;20446;-56
2021/01/14 00:47:52;;;;;;;0.43;0.38;;;5.30;94.50;;;;;;4989064;28;20038;-55
2021/01/14 00:50:17;;;;;;;0.75;0.55;;;5.30;94.60;;;;;;4991979;28;20025;-57
2021/01/14 00:52:43;;;;;;;0.90;0.50;;;5.30;94.50;;;;;;4991793;28;20441;-56
2021/01/14 00:55:08;;;;;;;1.50;0.40;;;5.30;94.70;;;;;;4991653;28;20019;-57
2021/01/14 00:57:35;;;;;;;0.60;0.43;;;5.30;94.70;;;;;;4983568;28;20018;-56
2021/01/14 01:00:11;;;;;;;0.40;0.40;;;5.30;94.60;;;;;;4990031;28;20026;-56
2021/01/14 01:02:41;;;;;;;1.25;0.70;;;5.30;94.60;;;;;;4991911;28;20504;-57
2021/01/14 01:05:08;;;;;;;0.77;0.50;;;5.30;94.60;;;;;;4977649;28;20033;-57
2021/01/14 01:07:34;;;;;;;0.25;0.25;;;5.30;94.60;;;;;;4976083;28;20071;-57
2021/01/14 01:09:59;;;;;;;1.85;0.40;;;5.30;94.70;;;;;;4985878;28;20058;-57
2021/01/14 01:12:25;;;;;;;0.55;0.43;;;5.30;94.70;;;;;;4984218;28;20015;-56
2021/01/14 01:14:50;;;;;;;1.42;0.40;;;5.30;94.70;;;;;;4966105;28;20380;-57
2021/01/14 01:17:16;;;;;;;0.30;0.30;;;5.30;94.70;;;;;;4991142;28;20018;-56
2021/01/14 01:19:41;;;;;;;0.40;0.40;;;5.40;94.80;;;;;;4990686;28;20046;-55
2021/01/14 01:22:07;;;;;;;0.82;0.70;;;5.30;94.90;;;;;;4994020;28;20038;-56
2021/01/14 01:24:32;;;;;;;1.30;0.77;;;5.40;94.90;;;;;;4991934;28;20045;-55
2021/01/14 01:26:58;;;;;;;2.20;0.50;;;5.30;94.80;;;;;;4990442;28;20486;-57
2021/01/14 01:29:23;;;;;;;2.35;0.80;;;5.40;94.80;;;;;;4991344;28;20085;-57
2021/01/14 01:31:49;;;;;;;0.47;0.47;;;5.30;94.70;;;;;;4986544;28;20458;-56
2021/01/14 01:34:15;;;;;;;0.73;0.38;;;5.40;94.80;;;;;;4974325;28;20505;-56
2021/01/14 01:36:41;;;;;;;0.40;0.32;;;5.40;94.70;;;;;;4991540;28;20478;-55
2021/01/14 01:39:06;;;;;;;0.63;0.50;;;5.40;94.70;;;;;;4983224;28;20086;-55
2021/01/14 01:41:32;;;;;;;0.40;0.40;;;5.40;94.70;;;;;;4989828;28;20037;-55
2021/01/14 01:43:57;;;;;;;0.93;0.40;;;5.40;94.70;;;;;;4988425;28;20406;-56
2021/01/14 01:46:25;;;;;;;1.27;0.50;;;5.40;94.90;;;;;;4991822;28;20055;-55
2021/01/14 01:48:51;;;;;;;0.80;0.43;;;5.40;94.80;;;;;;4983863;28;20026;-55
2021/01/14 01:51:16;;;;;;;0.40;0.40;;;5.40;94.80;;;;;;4971902;28;20042;-56
2021/01/14 01:53:42;;;;;;;0.60;0.60;;;5.40;94.80;;;;;;4985470;28;20073;-55
2021/01/14 01:56:07;;;;;;;1.10;0.35;;;5.40;94.90;;;;;;4991903;28;20030;-56
2021/01/14 01:58:34;;;;;;;0.75;0.40;;;5.40;94.90;;;;;;4973299;28;20050;-56
2021/01/14 02:00:59;;;;;;;0.40;0.30;;;5.40;95.00;;;;;;4979479;28;20084;-56
2021/01/14 02:03:25;;;;;;;0.95;0.60;;;5.40;94.90;;;;;;4973381;28;20026;-56
2021/01/14 02:05:51;;;;;;;0.85;0.65;;;5.40;94.90;;;;;;4987294;28;20510;-56
2021/01/14 02:08:37;;;;;;;0.60;0.40;;;5.40;94.90;;;;;;4987168;28;20034;-57
2021/01/14 02:11:09;;;;;;;;;;;5.40;94.90;;;;;;4979970;28;20073;-56
2021/01/14 02:14:13;;;;;;;0.98;0.43;;;5.40;94.90;;;;;;4989654;28;19906;-56
2021/01/14 02:16:39;;;;;;;0.60;0.50;;;5.40;94.90;;;;;;4988158;28;20613;-55
2021/01/14 02:19:10;;;;;;;0.73;0.50;;;5.50;94.80;;;;;;4978103;28;20474;-57
2021/01/14 02:21:36;;;;;;;0.63;0.40;;;5.40;94.90;;;;;;4985969;28;20030;-57
2021/01/14 02:24:14;;;;;;;1.00;0.50;;;5.50;95.00;;;;;;4973274;28;20030;-57
2021/01/14 02:26:39;;;;;;;0.45;0.40;;;5.50;94.90;;;;;;4968004;28;20098;-57
2021/01/14 02:29:05;;;;;;;1.25;0.45;;;5.40;94.90;;;;;;4973362;28;20030;-56
2021/01/14 02:31:31;;;;;;;0.68;0.50;;;5.50;95.00;;;;;;4988914;28;20414;-56
2021/01/14 02:33:56;;;;;;;0.50;0.50;;;5.50;95.00;;;;;;4976904;28;20057;-55
2021/01/14 02:36:24;;;;;;;0.63;0.40;;;5.50;95.00;;;;;;4990553;28;20089;-57
2021/01/14 02:38:50;;;;;;;0.63;0.40;;;5.50;95.10;;;;;;4984555;28;20026;-55
2021/01/14 02:41:15;;;;;;;0.65;0.50;;;5.50;95.10;;;;;;4989726;28;20028;-56
2021/01/14 02:43:42;;;;;;;1.08;0.60;;;5.50;95.10;;;;;;4986241;28;20032;-56
2021/01/14 02:46:08;;;;;;;0.68;0.40;;;5.50;95.10;;;;;;4981152;28;20043;-57
2021/01/14 02:49:14;;;;;;;0.77;0.52;;;5.50;95.10;;;;;;4990502;28;20032;-56
2021/01/14 02:51:47;;;;;;;0.75;0.52;;;5.50;95.10;;;;;;4981310;28;20174;-56
2021/01/14 02:54:13;;;;;;;0.80;0.40;;;5.50;95.10;;;;;;4965923;28;20050;-57
2021/01/14 02:56:39;;;;;;;0.88;0.50;;;5.50;95.10;;;;;;4975596;28;20039;-55
2021/01/14 02:59:04;;;;;;;0.60;0.40;;;5.50;95.10;;;;;;4971211;28;20080;-57
2021/01/14 03:01:30;;;;;;;0.60;0.40;;;5.50;95.10;;;;;;4989155;28;20026;-56
2021/01/14 03:03:56;;;;;;;0.90;0.38;;;5.50;95.20;;;;;;4988162;28;20035;-57
2021/01/14 03:06:22;;;;;;;0.35;0.30;;;5.50;95.10;;;;;;4984556;28;20019;-56
2021/01/14 03:08:47;;;;;;;0.50;0.35;;;5.50;95.20;;;;;;4989032;28;20034;-56
2021/01/14 03:11:13;;;;;;;1.10;0.52;;;5.50;95.20;;;;;;4989688;28;20593;-57
2021/01/14 03:13:39;;;;;;;0.50;0.40;;;5.50;95.20;;;;;;4989834;28;20054;-56
2021/01/14 03:16:06;;;;;;;0.63;0.43;;;5.50;95.20;;;;;;4988916;28;20023;-57
2021/01/14 03:18:32;;;;;;;0.85;0.45;;;5.50;95.20;;;;;;4988921;28;20030;-56
2021/01/14 03:20:57;;;;;;;1.08;0.32;;;5.60;95.20;;;;;;4982317;28;20053;-57
2021/01/14 03:23:23;;;;;;;0.30;0.30;;;5.50;95.20;;;;;;4985314;28;20101;-57
2021/01/14 03:25:48;;;;;;;0.93;0.40;;;5.60;95.20;;;;;;4989210;28;20038;-56
2021/01/14 03:28:14;;;;;;;0.68;0.60;;;5.50;95.20;;;;;;4966573;28;20061;-57
2021/01/14 03:30:39;;;;;;;0.63;0.52;;;5.60;95.20;;;;;;4989692;28;20026;-56
2021/01/14 03:33:05;;;;;;;0.63;0.40;;;5.60;95.20;;;;;;4990315;28;20034;-57
2021/01/14 03:35:30;;;;;;;0.52;0.40;;;5.60;95.30;;;;;;4968838;28;20049;-56
2021/01/14 03:37:56;;;;;;;0.40;0.40;;;5.60;95.30;;;;;;4986902;28;20035;-57
2021/01/14 03:40:21;;;;;;;0.43;0.43;;;5.60;95.30;;;;;;4984282;28;20034;-57
2021/01/14 03:42:47;;;;;;;1.10;0.60;;;5.60;95.30;;;;;;4986788;28;20031;-56
2021/01/14 03:45:12;;;;;;;0.40;0.40;;;5.60;95.30;;;;;;4989651;28;20034;-56
2021/01/14 03:47:38;;;;;;;0.93;0.40;;;5.60;95.30;;;;;;4984621;28;20035;-56
2021/01/14 03:50:05;;;;;;;0.52;0.40;;;5.60;95.30;;;;;;4981073;28;20046;-57
2021/01/14 03:52:30;;;;;;;0.55;0.50;;;5.60;95.40;;;;;;4989726;28;20037;-57
2021/01/14 03:54:56;;;;;;;0.55;0.40;;;5.60;95.40;;;;;;4976796;28;20390;-56
2021/01/14 03:57:21;;;;;;;0.75;0.55;;;5.60;95.40;;;;;;4990064;28;20456;-56
2021/01/14 03:59:47;;;;;;;0.50;0.40;;;5.60;95.40;;;;;;4989505;28;20025;-57
2021/01/14 04:02:13;;;;;;;0.75;0.40;;;5.60;95.40;;;;;;4988896;28;20027;-56
2021/01/14 04:04:39;;;;;;;0.45;0.40;;;5.60;95.40;;;;;;4988078;28;20390;-55
2021/01/14 04:07:12;;;;;;;0.68;0.50;;;5.60;95.50;;;;;;4984232;28;20089;-56
2021/01/14 04:09:37;;;;;;;0.45;0.40;;;5.60;95.40;;;;;;4984309;28;20044;-56
2021/01/14 04:12:03;;;;;;;0.45;0.40;;;5.70;95.40;;;;;;4986261;28;20448;-57
2021/01/14 04:14:29;;;;;;;0.40;0.35;;;5.60;95.50;;;;;;4982539;28;20117;-57
2021/01/14 04:16:55;;;;;;;0.52;0.30;;;5.60;95.60;;;;;;4975470;28;20038;-55
2021/01/14 04:19:20;;;;;;;0.40;0.40;;;5.70;95.60;;;;;;4970469;28;20382;-56
2021/01/14 04:21:46;;;;;;;0.40;0.30;;;5.70;95.60;;;;;;4982552;28;20390;-56
2021/01/14 04:24:12;;;;;;;0.73;0.50;;;5.70;95.60;;;;;;4989797;28;20081;-57
2021/01/14 04:26:37;;;;;;;0.43;0.40;;;5.70;95.60;;;;;;4990028;28;20022;-56
2021/01/14 04:29:03;;;;;;;0.43;0.40;;;5.70;95.60;;;;;;4987917;28;20447;-57
2021/01/14 04:31:29;;;;;;;0.22;0.22;;;5.70;95.60;;;;;;4970950;28;20031;-56
2021/01/14 04:33:54;;;;;;;0.30;0.30;;;5.70;95.90;;;;;;4972487;28;20058;-56
2021/01/14 04:36:20;;;;;;;0.55;0.35;;;5.60;95.60;;;;;;4989049;28;20061;-56
2021/01/14 04:38:45;;;;;;;0.45;0.45;;;5.70;95.60;;;;;;4990431;28;20374;-56
2021/01/14 04:41:11;;;;;;;0.77;0.30;;;5.70;95.70;;;;;;4987580;28;20399;-55
2021/01/14 04:43:36;;;;;;;0.50;0.30;;;5.70;95.80;;;;;;4981473;28;20042;-57
2021/01/14 04:46:07;;;;;;;0.30;0.30;;;5.70;95.70;;;;;;4992883;28;20022;-56
2021/01/14 04:48:40;;;;;;;0.40;0.30;;;5.70;95.70;;;;;;4977744;28;20034;-56
2021/01/14 04:51:07;;;;;;;0.20;0.20;;;5.70;95.70;;;;;;4991106;28;20025;-56
2021/01/14 04:53:34;;;;;;;0.90;0.30;;;5.70;96.10;;;;;;4991263;28;20026;-56
2021/01/14 04:56:00;;;;;;;0.70;0.40;;;5.70;95.90;;;;;;4990817;28;20454;-57
2021/01/14 04:58:25;;;;;;;0.30;0.25;;;5.70;95.90;;;;;;4986888;28;20105;-56
2021/01/14 05:00:51;;;;;;;0.38;0.25;;;5.70;95.90;;;;;;4971653;28;20031;-57
2021/01/14 05:03:24;;;;;;;1.40;0.20;;;5.70;95.80;;;;;;4989087;28;20066;-56
2021/01/14 05:05:50;;;;;;;0.20;0.20;;;5.70;95.80;;;;;;4987342;28;20022;-56
2021/01/14 05:08:16;;;;;;;0.30;0.30;;;5.70;95.90;;;;;;4986454;28;20042;-56
2021/01/14 05:10:43;;;;;;;0.38;0.38;;;5.70;95.90;;;;;;4985807;28;20037;-57
2021/01/14 05:13:09;;;;;;;0.38;0.32;;;5.70;95.90;;;;;;4971826;28;20445;-56
2021/01/14 05:15:34;;;;;;;0.30;0.30;;;5.70;95.90;;;;;;4988436;28;20043;-56
2021/01/14 05:18:00;;;;;;;0.55;0.40;;;5.70;95.90;;;;;;4988457;28;20482;-56
2021/01/14 05:20:26;;;;;;;0.40;0.35;;;5.70;95.90;;;;;;4989049;28;20038;-56
2021/01/14 05:23:00;;;;;;;0.52;0.40;;;5.70;95.80;;;;;;4995622;28;20043;-56
2021/01/14 05:25:25;;;;;;;0.35;0.30;;;5.70;95.80;;;;;;4989254;28;20038;-56
2021/01/14 05:27:51;;;;;;;0.20;0.20;;;5.80;95.90;;;;;;4978424;28;20035;-56
2021/01/14 05:30:17;;;;;;;0.28;0.28;;;5.70;95.90;;;;;;4969049;28;20031;-56
2021/01/14 05:32:44;;;;;;;0.30;0.30;;;5.80;95.90;;;;;;4990415;28;20019;-57
2021/01/14 05:35:11;;;;;;;0.85;0.35;;;5.80;95.90;;;;;;4980816;28;20116;-57
2021/01/14 05:37:41;;;;;;;2.10;0.40;;;5.70;95.80;;;;;;4989136;28;20052;-56
2021/01/14 05:40:23;;;;;;;0.30;0.30;;;5.80;95.80;;;;;;4987651;28;20026;-56
2021/01/14 05:43:05;;;;;;;0.30;0.30;;;5.80;95.80;;;;;;4980740;28;20058;-55
2021/01/14 05:45:34;;;;;;;0.43;0.20;;;5.80;95.70;;;;;;4973347;28;20030;-57
2021/01/14 05:48:09;;;;;;;1.92;0.20;;;5.80;95.70;;;;;;4988389;28;20034;-56
2021/01/14 05:50:47;;;;;;;0.32;0.30;;;5.80;95.70;;;;;;4981707;28;20049;-56
2021/01/14 05:53:16;;;;;;;0.55;0.30;;;5.80;95.70;;;;;;4988485;28;20165;-57
2021/01/14 05:55:43;;;;;;;0.25;0.20;;;5.80;95.70;;;;;;4990534;28;20027;-56
2021/01/14 05:58:11;;;;;;;0.52;0.40;;;5.80;95.80;;;;;;4989659;28;20545;-57
2021/01/14 06:00:37;;;;;;;0.55;0.40;;;5.80;95.80;;;;;;4957778;28;20046;-56
2021/01/14 06:03:25;;;;;;;0.57;0.57;;;5.80;95.90;;;;;;4988758;28;20029;-57
2021/01/14 06:05:52;;;;;;;0.30;0.30;;;5.80;95.90;;;;;;4970330;28;20014;-56
2021/01/14 06:08:22;;;;;;;0.20;0.20;;;5.80;95.90;;;;;;4991947;28;20065;-56
2021/01/14 06:10:47;;;;;;;0.25;0.25;;;5.80;96.00;;;;;;4990160;28;20023;-57
2021/01/14 06:13:13;;;;;;;0.30;0.30;;;5.70;95.90;;;;;;4989664;28;20544;-56
2021/01/14 06:15:38;;;;;;;0.20;0.20;;;5.80;96.00;;;;;;4990645;28;20030;-55
2021/01/14 06:18:09;;;;;;;0.40;0.40;;;5.80;95.90;;;;;;4991023;28;20069;-57
2021/01/14 06:20:36;;;;;;;0.20;0.20;;;5.80;95.90;;;;;;4970968;28;20053;-55
2021/01/14 06:23:01;;;;;;;0.38;0.32;;;5.80;95.80;;;;;;4990114;28;20026;-57
2021/01/14 06:25:27;;;;;;;0.43;0.20;;;5.80;95.80;;;;;;4988257;28;20034;-55
2021/01/14 06:27:55;;;;;;;0.45;0.30;;;5.80;95.70;;;;;;4984874;28;20041;-56
2021/01/14 06:30:21;;;;;;;0.25;0.20;;;5.80;95.60;;;;;;4990558;28;20077;-56
2021/01/14 06:32:47;;;;;;;0.40;0.30;;;5.80;95.50;;;;;;4973788;28;20489;-56
2021/01/14 06:35:13;;;;;;;0.20;0.20;;;5.80;95.50;;;;;;4957702;28;20038;-57
2021/01/14 06:37:38;;;;;;;0.40;0.30;;;5.80;95.50;;;;;;4989464;28;20026;-57
2021/01/14 06:40:07;;;;;;;0.30;0.30;;;5.80;95.40;;;;;;4988936;28;20042;-57
2021/01/14 06:42:33;;;;;;;0.52;0.30;;;5.80;95.40;;;;;;4983484;28;20046;-56
2021/01/14 06:45:08;;;;;;;0.80;0.40;;;5.70;95.40;;;;;;4990230;28;20073;-55
2021/01/14 06:47:41;;;;;;;0.10;0.10;;;5.80;95.30;;;;;;4989633;28;20022;-56
2021/01/14 06:50:26;;;;;;;0.30;0.30;;;5.80;95.60;;;;;;4989977;28;20054;-57
2021/01/14 06:53:00;;;;;;;0.28;0.28;;;5.70;95.20;;;;;;4969961;28;20188;-56
2021/01/14 06:55:28;;;;;;;0.33;0.33;;;5.70;95.10;;;;;;4985817;28;20054;-56
2021/01/14 06:58:06;;;;;;;0.30;0.30;;;5.70;95.10;;;;;;4983711;28;20177;-55
2021/01/14 07:00:33;;;;;;;0.32;0.25;;;5.70;95.00;;;;;;4982513;28;20445;-56
2021/01/14 07:03:21;;;;;;;0.30;0.30;;;5.80;95.00;;;;;;4969633;28;20029;-57
2021/01/14 07:05:56;;;;;;;0.30;0.30;;;5.70;94.90;;;;;;4983474;28;20121;-56
2021/01/14 07:08:38;;;;;;;0.47;0.30;;;5.70;94.90;;;;;;4989805;28;20030;-56
2021/01/14 07:11:17;;;;;;;0.82;0.35;;;5.70;94.80;;;;;;4987954;28;20034;-56
2021/01/14 07:13:47;;;;;;;0.40;0.40;;;5.70;94.80;;;;;;4987538;28;20022;-57
2021/01/14 07:16:23;;;;;;;1.20;0.35;;;5.70;94.80;;;;;;4988614;28;20023;-56
2021/01/14 07:18:49;;;;;;;0.40;0.25;;;5.60;94.70;;;;;;4984906;28;20445;-56
2021/01/14 07:21:44;;;;;;;1.27;0.60;;;5.60;94.70;;;;;;4977273;28;20027;-57
2021/01/14 07:24:26;;;;;;;0.40;0.40;;;5.60;94.70;;;;;;4952649;28;20041;-56
2021/01/14 07:26:55;;;;;;;0.35;0.35;;;5.60;94.70;;;;;;4984911;28;20069;-56
2021/01/14 07:29:20;;;;;;;2.30;0.43;;;5.60;94.60;;;;;;4983242;28;20030;-56
2021/01/14 07:31:47;;;;;;;0.40;0.30;;;5.60;94.60;;;;;;4952343;28;20031;-56
2021/01/14 07:34:39;;;;;;;1.05;0.40;;;5.60;94.50;;;;;;4986930;28;20034;-57
2021/01/14 07:37:08;;;;;;;1.38;0.40;;;5.60;94.50;;;;;;4985155;28;20014;-56
2021/01/14 07:39:47;;;;;;;0.82;0.30;;;5.50;94.40;;;;;;4986682;28;20117;-56
2021/01/14 07:42:32;;;;;;;0.30;0.30;;;5.50;94.40;;;;;;4981104;28;20052;-55
2021/01/14 07:44:59;;;;;;;0.93;0.73;;;5.50;94.40;;;;;;4964355;28;20125;-56
2021/01/14 07:47:29;;;;;;;0.50;0.40;;;5.50;94.40;;;;;;4981842;28;20105;-56
2021/01/14 07:49:55;;;;;;;1.02;0.45;;;5.50;94.40;;;;;;4971630;28;20058;-57
2021/01/14 07:52:32;;;;;;;0.38;0.38;;;5.50;94.30;;;;;;4969245;28;20541;-56
2021/01/14 07:55:05;;;;;;;0.50;0.40;;;5.50;94.30;;;;;;4981055;28;20582;-56
2021/01/14 07:57:31;;;;;;;0.47;0.45;;;5.40;94.20;;;;;;4979745;28;20089;-56
2021/01/14 07:59:57;;;;;;;0.77;0.63;;;5.40;94.20;;;;;;4978636;28;20042;-56
2021/01/14 08:02:22;;;;;;;3.05;2.35;;;5.40;94.20;;;;;;4968626;28;20469;-58
2021/01/14 08:04:48;;;;;;;2.40;1.70;;;5.40;94.20;;;;;;4968668;28;20405;-56
2021/01/14 08:07:24;;;;;;;2.72;1.88;;;5.40;94.20;;;;;;4981479;28;20113;-56
2021/01/14 08:09:50;;;;;;;3.97;2.25;;;5.40;94.20;;;;;;4966559;28;20022;-56
2021/01/14 08:12:16;;;;;;;3.65;2.40;;;5.30;94.20;;;;;;4980931;28;20033;-56
2021/01/14 08:14:41;;;;;;;4.18;3.00;;;5.40;94.20;;;;;;4951189;28;20113;-56
2021/01/14 08:17:20;;;;;;;4.75;2.97;;;5.40;94.10;;;;;;4972727;28;20312;-57
2021/01/14 08:19:45;;;;;;;4.40;2.60;;;5.30;94.20;;;;;;4988376;28;20030;-56
2021/01/14 08:22:12;;;;;;;3.83;2.53;;;5.30;94.10;;;;;;4972212;28;20194;-56
2021/01/14 08:24:38;;;;;;;3.20;2.60;;;5.30;94.10;;;;;;4981963;28;20505;-56
2021/01/14 08:27:05;;;;;;;3.38;2.47;;;5.30;94.10;;;;;;4985602;28;20093;-57
2021/01/14 08:29:39;;;;;;;3.22;2.30;;;5.30;94.10;;;;;;4990700;28;20038;-56
2021/01/14 08:32:04;;;;;;;3.63;2.47;;;5.30;94.00;;;;;;4981777;28;20026;-56
2021/01/14 08:34:30;;;;;;;3.33;2.22;;;5.30;94.00;;;;;;4989968;28;20049;-56
2021/01/14 08:36:56;;;;;;;4.00;2.58;;;5.30;94.00;;;;;;4969521;28;20042;-57
2021/01/14 08:39:22;;;;;;;3.22;2.30;;;5.30;94.00;;;;;;4984172;28;20418;-55
2021/01/14 08:41:49;;;;;;;3.40;2.45;;;5.30;94.00;;;;;;4987496;28;20520;-56
2021/01/14 08:44:18;;;;;;;3.20;2.30;;;5.30;94.00;;;;;;4971246;28;20023;-56
2021/01/14 08:46:48;;;;;;;4.47;2.30;;;5.30;94.00;;;;;;4979572;28;20034;-56
2021/01/14 08:49:17;;;;;;;5.53;2.35;;;5.30;93.90;;;;;;4988507;28;20533;-57
2021/01/14 08:51:43;;;;;;;4.60;2.50;;;5.30;93.90;;;;;;4991136;28;20624;-56
2021/01/14 08:54:09;;;;;;;3.20;2.20;;;5.30;93.90;;;;;;4988935;28;20018;-56
2021/01/14 08:56:35;;;;;;;6.38;2.38;;;5.30;93.90;;;;;;4980840;28;20048;-56
2021/01/14 08:59:11;;;;;;;4.47;2.33;;;5.30;93.90;;;;;;4973562;28;20076;-58
2021/01/14 09:01:36;;;;;;;3.63;2.20;;;5.30;93.80;;;;;;4973032;28;20030;-56
2021/01/14 09:04:03;;;;;;;5.88;2.22;;;5.30;93.80;;;;;;4982564;28;20513;-57
2021/01/14 09:06:33;;;;;;;6.03;2.30;;;5.20;93.80;;;;;;4985799;28;20483;-56
2021/01/14 09:08:59;;;;;;;5.65;2.55;;;5.20;93.80;;;;;;4988318;28;20081;-55
2021/01/14 09:11:25;;;;;;;5.07;2.30;;;5.30;93.80;;;;;;4987390;28;20450;-56
2021/01/14 09:14:00;;;;;;;7.00;2.20;;;5.30;93.80;;;;;;4990831;28;20034;-56
2021/01/14 09:16:25;;;;;;;6.10;2.10;;;5.20;93.70;;;;;;4981439;28;20026;-56
2021/01/14 09:18:51;;;;;;;4.38;2.42;;;5.20;93.70;;;;;;4989900;28;20510;-58
2021/01/14 09:21:16;;;;;;;5.80;1.95;;;5.30;93.70;;;;;;4992085;28;20028;-56
2021/01/14 09:23:42;;;;;;;7.95;2.40;;;5.20;93.70;;;;;;4987840;28;20376;-58
2021/01/14 09:26:21;;;;;;;5.90;2.35;;;5.20;93.70;;;;;;4989634;28;20030;-56
2021/01/14 09:28:51;;;;;;;3.10;2.30;;;5.30;93.70;;;;;;4975161;28;20396;-56
2021/01/14 09:31:17;;;;;;;6.00;2.65;;;5.20;93.70;;;;;;4986182;28;20038;-59
2021/01/14 09:33:44;;;;;;;6.95;2.40;;;5.20;93.70;;;;;;4964869;28;20074;-59
2021/01/14 09:36:17;;;;;;;7.28;2.78;;;5.20;93.60;;;;;;4991441;28;20038;-58
2021/01/14 09:38:45;;;;;;;5.72;2.28;;;5.00;93.60;;;;;;4972790;28;20101;-56
2021/01/14 09:41:11;;;;;;;7.45;2.50;;;5.20;93.70;;;;;;4990773;28;20416;-57
2021/01/14 09:43:40;;;;;;;4.13;2.10;;;5.20;93.70;;;;;;4979998;28;20053;-56
2021/01/14 09:46:12;;;;;;;4.25;2.10;;;5.20;93.70;;;;;;4972933;28;20022;-56
2021/01/14 09:48:39;;;;;;;8.43;2.47;;;5.20;93.70;;;;;;4990566;28;20061;-56
2021/01/14 09:51:11;;;;;;;8.57;3.10;;;5.20;93.70;;;;;;4971072;28;20035;-57
2021/01/14 09:53:42;;;;;;;7.68;2.20;;;5.20;93.70;;;;;;4989863;28;20026;-57
2021/01/14 09:56:09;;;;;;;6.50;2.22;;;5.20;93.70;;;;;;4988070;28;20113;-57
2021/01/14 09:58:34;;;;;;;11.73;2.90;;;5.20;93.60;;;;;;4983952;28;20038;-57
2021/01/14 10:01:00;;;;;;;13.10;3.72;;;5.10;93.60;;;;;;4970126;28;20150;-57
2021/01/14 10:03:25;;;;;;;7.68;2.45;;;5.20;93.60;;;;;;4965454;28;20506;-57
2021/01/14 10:05:51;;;;;;;10.20;2.30;;;5.10;93.60;;;;;;4981787;28;20615;-56
2021/01/14 10:08:22;;;;;;;6.65;2.10;;;5.10;93.60;;;;;;4980339;28;20030;-57
2021/01/14 10:10:48;;;;;;;19.33;3.22;;;5.20;93.60;;;;;;4978744;28;20042;-56
2021/01/14 10:13:14;;;;;;;4.43;2.25;;;5.10;93.50;;;;;;4979931;28;20023;-57
2021/01/14 10:15:43;;;;;;;13.30;2.78;;;5.10;93.60;;;;;;4948568;28;20027;-56
2021/01/14 10:18:22;;;;;;;5.90;2.20;;;5.10;93.60;;;;;;4982283;28;20069;-56
2021/01/14 10:20:48;;;;;;;7.10;2.55;;;5.10;93.60;;;;;;4984740;28;20029;-57
2021/01/14 10:23:22;;;;;;;15.45;2.80;;;5.10;93.60;;;;;;4971812;28;20010;-57
2021/01/14 10:25:48;;;;;;;6.25;2.42;;;5.10;93.60;;;;;;4949104;28;20027;-57
2021/01/14 10:28:13;;;;;;;11.10;2.67;;;5.10;93.60;;;;;;4984589;28;20082;-57
2021/01/14 10:30:42;;;;;;;21.00;2.88;;;5.10;93.60;;;;;;4971831;28;20092;-57
2021/01/14 10:33:08;;;;;;;10.05;2.50;;;5.10;93.60;;;;;;4937722;28;20363;-56
2021/01/14 10:35:34;;;;;;;10.55;2.53;;;5.10;93.60;;;;;;4975528;28;20041;-56
2021/01/14 10:38:12;;;;;;;12.25;2.13;;;5.10;93.60;;;;;;4977143;28;20045;-58
2021/01/14 10:40:58;;;;;;;15.27;3.00;;;5.10;93.60;;;;;;4974850;28;20045;-58
2021/01/14 10:43:33;;;;;;;7.85;2.58;;;5.10;93.60;;;;;;4971207;28;20069;-57
2021/01/14 10:45:59;;;;;;;19.48;3.00;;;5.10;93.50;;;;;;4967440;28;20648;-57
2021/01/14 10:48:37;;;;;;;7.18;2.15;;;5.10;93.60;;;;;;4967597;28;20023;-56
2021/01/14 10:51:03;;;;;;;9.93;2.40;;;5.10;93.50;;;;;;4975602;28;20072;-57
2021/01/14 10:53:33;;;;;;;5.82;2.50;;;5.10;93.60;;;;;;4969165;28;20031;-56
2021/01/14 10:56:19;;;;;;;4.70;2.28;;;5.10;93.50;;;;;;4982218;28;20116;-58
2021/01/14 10:58:53;;;;;;;;;;;5.00;93.50;;;;;;4983311;28;20030;-57
2021/01/14 11:01:19;;;;;;;7.38;2.33;;;5.00;93.50;;;;;;4986378;28;19996;-57
2021/01/14 11:03:45;;;;;;;10.27;2.80;;;5.00;93.50;;;;;;4982200;28;20618;-58
2021/01/14 11:06:11;;;;;;;8.93;2.80;;;5.00;93.60;;;;;;4982124;28;20097;-58
2021/01/14 11:08:46;;;;;;;9.80;2.30;;;5.00;93.50;;;;;;4968371;28;20101;-58
2021/01/14 11:11:15;;;;;;;7.90;2.38;;;5.00;93.50;;;;;;4967775;28;20109;-56
2021/01/14 11:13:47;;;;;;;10.10;2.25;;;5.00;93.50;;;;;;4968881;28;20479;-58
2021/01/14 11:16:14;;;;;;;7.90;2.60;;;5.00;93.50;;;;;;4967278;28;20093;-57
2021/01/14 11:18:52;;;;;;;8.55;2.20;;;5.00;93.40;;;;;;4967031;28;20113;-56
2021/01/14 11:21:28;;;;;;;12.45;2.47;;;5.00;93.50;;;;;;4966265;28;20027;-58
2021/01/14 11:23:54;;;;;;;15.05;2.38;;;5.00;93.50;;;;;;4954122;28;20026;-58
2021/01/14 11:26:20;;;;;;;9.48;2.20;;;5.00;93.50;;;;;;4953393;28;20069;-57
2021/01/14 11:28:46;;;;;;;6.43;2.38;;;5.00;93.50;;;;;;4964691;28;20030;-57
2021/01/14 11:31:12;;;;;;;12.10;2.40;;;5.00;93.50;;;;;;4981999;28;20402;-58
2021/01/14 11:33:38;;;;;;;8.52;2.55;;;5.00;93.50;;;;;;4948931;28;20042;-57
2021/01/14 11:36:06;;;;;;;6.68;1.85;;;5.00;93.50;;;;;;4974483;28;20026;-58
2021/01/14 11:38:32;;;;;;;9.25;2.40;;;5.00;93.40;;;;;;4956126;28;20023;-58
2021/01/14 11:40:57;;;;;;;5.57;2.35;;;5.00;93.50;;;;;;4972961;28;20042;-58
2021/01/14 11:43:22;;;;;;;16.48;2.75;;;5.00;93.40;;;;;;4954363;28;20553;-58
2021/01/14 11:45:48;;;;;;;6.57;2.75;;;5.00;93.50;;;;;;4964624;28;20030;-56
2021/01/14 11:48:14;;;;;;;6.70;2.05;;;5.00;93.50;;;;;;4971913;28;20026;-58
2021/01/14 11:50:40;;;;;;;5.60;2.78;;;5.00;93.50;;;;;;4980681;28;20038;-57
2021/01/14 11:53:05;;;;;;;7.03;2.55;;;5.00;93.40;;;;;;4972283;28;20026;-58
2021/01/14 11:55:31;;;;;;;8.60;2.30;;;5.00;93.40;;;;;;4981915;28;20442;-57
2021/01/14 11:57:56;;;;;;;6.63;2.33;;;5.00;93.50;;;;;;4954458;28;20286;-58
2021/01/14 12:00:22;;;;;;;8.75;2.33;;;5.00;93.50;;;;;;4973903;28;20038;-56
2021/01/14 12:02:47;;;;;;;5.25;2.90;;;5.10;93.50;;;;;;4955547;28;20057;-56
2021/01/14 12:05:13;;;;;;;4.78;2.72;;;5.00;93.40;;;;;;4983602;28;20390;-56
2021/01/14 12:07:39;;;;;;;8.30;2.35;;;5.00;93.40;;;;;;4987171;28;20068;-58
2021/01/14 12:10:05;;;;;;;8.68;2.80;;;5.00;93.40;;;;;;4984034;28;20508;-57
2021/01/14 12:12:32;;;;;;;8.00;2.80;;;5.00;93.30;;;;;;4968678;28;20023;-57
2021/01/14 12:14:57;;;;;;;3.97;2.63;;;4.90;93.40;;;;;;4986860;28;20026;-57
2021/01/14 12:17:23;;;;;;;6.82;2.63;;;5.00;93.40;;;;;;4991718;28;20026;-58
2021/01/14 12:19:48;;;;;;;9.07;2.97;;;5.00;93.40;;;;;;4989978;28;20031;-57
2021/01/14 12:22:14;;;;;;;4.65;2.17;;;4.90;93.40;;;;;;4960825;28;20085;-58
2021/01/14 12:24:39;;;;;;;13.45;2.58;;;5.00;93.40;;;;;;4963632;28;20041;-57
2021/01/14 12:27:05;;;;;;;11.25;2.40;;;4.90;93.40;;;;;;4973855;28;20105;-57
2021/01/14 12:29:31;;;;;;;15.27;2.70;;;4.90;93.40;;;;;;4977263;28;20509;-57
2021/01/14 12:31:57;;;;;;;13.88;3.30;;;4.90;93.40;;;;;;4942738;28;20208;-58
2021/01/14 12:34:22;;;;;;;5.57;2.25;;;5.00;93.40;;;;;;4970070;28;20055;-58
2021/01/14 12:36:48;;;;;;;4.25;2.30;;;4.90;93.40;;;;;;4962163;28;20027;-58
2021/01/14 12:39:13;;;;;;;10.55;3.03;;;4.90;93.40;;;;;;4960223;28;20034;-56
2021/01/14 12:41:39;;;;;;;10.98;3.03;;;4.90;93.40;;;;;;4936400;28;20114;-58
2021/01/14 12:44:05;;;;;;;5.80;2.15;;;4.90;93.40;;;;;;4988552;28;20030;-58
2021/01/14 12:46:41;;;;;;;8.68;2.50;;;4.90;93.40;;;;;;4966263;28;20126;-57
2021/01/14 12:49:07;;;;;;;11.00;2.45;;;4.90;93.40;;;;;;4970682;28;20513;-56
2021/01/14 12:51:33;;;;;;;8.68;2.45;;;4.90;93.40;;;;;;4930454;28;20157;-57
2021/01/14 12:53:58;;;;;;;7.80;2.30;;;4.90;93.40;;;;;;4952999;28;20019;-57
2021/01/14 12:56:24;;;;;;;7.45;2.30;;;4.90;93.40;;;;;;4949398;28;20138;-57
2021/01/14 12:58:49;;;;;;;9.00;2.80;;;4.90;93.40;;;;;;4950662;28;20077;-56
2021/01/14 13:01:15;;;;;;;6.88;2.17;;;4.90;93.40;;;;;;4935139;28;20031;-59
2021/01/14 13:03:40;;;;;;;3.90;2.35;;;4.90;93.40;;;;;;4966056;28;20030;-57